Time;durP1;ratioP1;P1;durP2;ratioP2;P2;SDS_P1;SDS_P2;PMS_P1;PMS_P2;Temp;Humidity;BMP_temperature;BMP_pressure;BME280_temperature;BME280_humidity;BME280_pressure;Samples;Min_cycle;Max_cycle;Signal;HPM_P1;HPM_P2
2021/10/19 00:00:46;;;;;;;10.88;5.20;;;13.30;99.90;;;;;;5033226;28;20060;-77
2021/10/19 00:03:15;;;;;;;9.23;5.05;;;14.60;99.90;;;;;;5031313;28;20021;-77
2021/10/19 00:05:40;;;;;;;9.32;4.78;;;13.40;99.90;;;;;;5012228;28;20026;-77
2021/10/19 00:08:06;;;;;;;10.30;4.72;;;13.30;99.90;;;;;;5011926;28;20033;-77
2021/10/19 00:10:31;;;;;;;8.32;4.28;;;13.30;99.90;;;;;;5013480;28;20022;-78
2021/10/19 00:12:57;;;;;;;9.63;5.40;;;13.40;99.90;;;;;;5012485;28;20057;-77
2021/10/19 00:15:22;;;;;;;12.50;5.85;;;13.30;99.90;;;;;;5012707;28;20030;-81
2021/10/19 00:17:48;;;;;;;15.82;4.82;;;13.40;99.90;;;;;;5014892;28;20014;-78
2021/10/19 00:20:15;;;;;;;11.05;4.60;;;13.40;99.90;;;;;;5030156;28;20021;-78
2021/10/19 00:22:41;;;;;;;11.25;4.80;;;13.30;99.90;;;;;;5038828;28;20017;-78
2021/10/19 00:25:07;;;;;;;12.18;4.85;;;13.30;99.90;;;;;;5040452;28;20076;-78
2021/10/19 00:27:33;;;;;;;10.77;5.03;;;13.40;99.90;;;;;;5038644;28;20061;-78
2021/10/19 00:30:01;;;;;;;10.15;4.78;;;13.30;99.90;;;;;;5038608;28;20028;-78
2021/10/19 00:32:27;;;;;;;10.45;5.00;;;13.30;99.90;;;;;;5039361;28;20021;-78
2021/10/19 00:34:53;;;;;;;9.95;4.68;;;13.40;99.90;;;;;;5038326;28;20056;-77
2021/10/19 00:37:18;;;;;;;12.40;5.25;;;13.30;99.90;;;;;;5036355;28;20029;-77
2021/10/19 00:39:44;;;;;;;7.22;3.92;;;13.30;99.90;;;;;;5036147;28;20089;-77
2021/10/19 00:42:10;;;;;;;12.48;5.55;;;13.30;99.90;;;;;;5034631;28;20436;-77
2021/10/19 00:44:35;;;;;;;10.63;5.20;;;13.40;99.90;;;;;;5035907;28;20026;-77
2021/10/19 00:47:01;;;;;;;10.82;5.10;;;13.40;99.90;;;;;;5035990;28;20060;-77
2021/10/19 00:49:26;;;;;;;9.25;5.80;;;13.40;99.90;;;;;;5030410;28;20026;-77
2021/10/19 00:51:55;;;;;;;12.43;5.15;;;13.50;99.90;;;;;;5016005;28;20049;-77
2021/10/19 00:54:22;;;;;;;8.38;4.78;;;13.60;99.90;;;;;;5018123;28;20418;-77
2021/10/19 00:56:51;;;;;;;12.27;5.50;;;13.50;99.90;;;;;;5014787;28;20030;-77
2021/10/19 00:59:17;;;;;;;13.25;5.03;;;13.50;99.90;;;;;;5015901;28;20064;-77
2021/10/19 01:01:42;;;;;;;9.18;4.97;;;13.50;99.90;;;;;;5016535;28;20026;-77
2021/10/19 01:04:08;;;;;;;12.82;5.18;;;13.60;99.90;;;;;;5016021;28;20018;-77
2021/10/19 01:06:34;;;;;;;10.32;5.05;;;13.50;99.90;;;;;;5030476;28;20033;-77
2021/10/19 01:09:00;;;;;;;12.40;4.90;;;13.60;99.90;;;;;;5034391;28;20029;-77
2021/10/19 01:11:26;;;;;;;9.95;4.53;;;13.60;99.90;;;;;;5035803;28;20104;-77
2021/10/19 01:13:51;;;;;;;10.77;5.53;;;13.60;99.90;;;;;;5015889;28;20113;-77
2021/10/19 01:16:17;;;;;;;10.30;4.72;;;13.60;99.90;;;;;;5015870;28;20535;-76
2021/10/19 01:18:43;;;;;;;9.85;4.80;;;13.60;99.90;;;;;;5014463;28;20034;-76
2021/10/19 01:21:09;;;;;;;13.32;5.63;;;13.60;99.90;;;;;;5016674;28;20014;-77
2021/10/19 01:23:35;;;;;;;13.13;5.72;;;13.70;99.90;;;;;;5014644;28;20026;-76
2021/10/19 01:26:03;;;;;;;11.30;5.65;;;13.70;99.90;;;;;;5014515;28;20475;-76
2021/10/19 01:28:30;;;;;;;12.82;5.72;;;13.70;99.90;;;;;;5015421;28;20100;-76
2021/10/19 01:30:59;;;;;;;8.43;5.22;;;13.70;99.90;;;;;;5015348;28;20030;-77
2021/10/19 01:33:25;;;;;;;12.65;5.32;;;13.80;99.90;;;;;;5015301;28;20025;-77
2021/10/19 01:35:51;;;;;;;9.60;4.70;;;14.40;99.90;;;;;;5014011;28;20022;-77
2021/10/19 01:38:19;;;;;;;12.57;5.82;;;13.70;99.90;;;;;;5016359;28;20494;-77
2021/10/19 01:40:46;;;;;;;10.57;5.78;;;13.70;99.90;;;;;;5013928;28;20029;-77
2021/10/19 01:43:18;;;;;;;13.70;6.95;;;13.70;99.90;;;;;;5013791;28;20026;-77
2021/10/19 01:45:46;;;;;;;13.45;6.35;;;13.60;99.90;;;;;;5015510;28;20075;-77
2021/10/19 01:48:12;;;;;;;13.15;5.95;;;13.70;99.90;;;;;;5015139;28;20100;-77
2021/10/19 01:50:38;;;;;;;12.00;6.45;;;13.60;99.90;;;;;;5015065;28;20069;-77
2021/10/19 01:53:07;;;;;;;10.80;6.22;;;13.60;99.90;;;;;;5015431;28;20076;-77
2021/10/19 01:55:33;;;;;;;14.30;6.10;;;13.60;99.90;;;;;;5033413;28;20029;-77
2021/10/19 01:57:59;;;;;;;12.82;6.88;;;13.50;99.90;;;;;;5034734;28;20026;-77
2021/10/19 02:00:25;;;;;;;16.70;6.95;;;13.60;99.90;;;;;;5033370;28;20018;-77
2021/10/19 02:02:51;;;;;;;12.85;6.35;;;13.50;99.90;;;;;;5020793;28;20032;-77
2021/10/19 02:05:16;;;;;;;14.80;6.93;;;13.50;99.90;;;;;;5028844;28;20509;-77
2021/10/19 02:07:42;;;;;;;11.23;6.22;;;13.60;99.90;;;;;;5034529;28;20100;-77
2021/10/19 02:10:09;;;;;;;12.23;6.35;;;13.50;99.90;;;;;;5035026;28;20463;-78
2021/10/19 02:12:35;;;;;;;12.02;5.75;;;13.60;99.90;;;;;;5033794;28;20029;-78
2021/10/19 02:15:01;;;;;;;12.00;6.40;;;13.60;99.90;;;;;;5033701;28;20010;-78
2021/10/19 02:17:26;;;;;;;11.88;5.75;;;13.60;99.90;;;;;;5031990;28;20017;-78
2021/10/19 02:19:52;;;;;;;15.32;7.15;;;13.60;99.90;;;;;;5015161;28;20082;-78
2021/10/19 02:22:18;;;;;;;17.98;7.50;;;13.60;99.90;;;;;;5013831;28;20036;-78
2021/10/19 02:24:43;;;;;;;13.48;7.15;;;13.60;99.90;;;;;;5014036;28;20025;-78
2021/10/19 02:27:09;;;;;;;12.25;6.28;;;13.60;99.90;;;;;;5028086;28;20414;-79
2021/10/19 02:29:35;;;;;;;11.10;6.05;;;13.70;99.90;;;;;;5034623;28;20100;-78
2021/10/19 02:32:01;;;;;;;13.63;6.85;;;13.70;99.90;;;;;;5033800;28;20471;-78
2021/10/19 02:34:26;;;;;;;16.42;8.05;;;13.80;99.90;;;;;;5034306;28;20031;-78
2021/10/19 02:36:52;;;;;;;15.93;7.30;;;13.80;99.90;;;;;;5033176;28;20045;-77
2021/10/19 02:39:18;;;;;;;15.68;6.68;;;13.90;99.90;;;;;;5034245;28;20052;-77
2021/10/19 02:41:44;;;;;;;15.60;7.70;;;13.90;99.90;;;;;;5025419;28;20018;-77
2021/10/19 02:44:11;;;;;;;15.38;7.93;;;13.90;99.90;;;;;;5012825;28;20052;-77
2021/10/19 02:46:37;;;;;;;15.63;6.97;;;14.00;99.90;;;;;;5014217;28;20108;-77
2021/10/19 02:49:04;;;;;;;14.32;7.82;;;14.00;99.90;;;;;;5014337;28;20038;-77
2021/10/19 02:51:29;;;;;;;14.25;7.47;;;14.00;99.90;;;;;;5012673;28;20029;-77
2021/10/19 02:53:56;;;;;;;15.38;8.05;;;14.10;99.90;;;;;;5013853;28;20486;-77
2021/10/19 02:56:22;;;;;;;16.92;7.72;;;14.10;99.90;;;;;;5012500;28;20030;-77
2021/10/19 02:58:47;;;;;;;14.30;7.72;;;14.10;99.90;;;;;;5028852;28;20113;-79
2021/10/19 03:01:13;;;;;;;15.27;8.32;;;14.10;99.90;;;;;;5038356;28;20013;-78
2021/10/19 03:03:39;;;;;;;13.80;7.45;;;14.10;99.90;;;;;;5038340;28;20029;-78
2021/10/19 03:06:05;;;;;;;13.25;7.57;;;14.20;99.90;;;;;;5036684;28;20025;-78
2021/10/19 03:08:31;;;;;;;12.02;6.82;;;14.10;99.90;;;;;;5036880;28;20441;-79
2021/10/19 03:10:57;;;;;;;15.10;8.07;;;14.50;99.90;;;;;;5036194;28;20092;-79
2021/10/19 03:13:24;;;;;;;15.48;8.40;;;14.20;99.90;;;;;;5031191;28;20116;-78
2021/10/19 03:15:49;;;;;;;14.48;8.32;;;14.20;99.90;;;;;;5015140;28;20018;-78
2021/10/19 03:18:15;;;;;;;18.08;8.70;;;14.20;99.90;;;;;;5014085;28;20022;-78
2021/10/19 03:20:40;;;;;;;13.55;8.00;;;14.20;99.90;;;;;;5013997;28;20390;-78
2021/10/19 03:23:06;;;;;;;12.80;7.43;;;14.20;99.90;;;;;;5013326;28;20025;-78
2021/10/19 03:25:32;;;;;;;14.68;7.95;;;14.20;99.90;;;;;;5013659;28;20117;-78
2021/10/19 03:27:58;;;;;;;15.80;7.78;;;14.20;99.90;;;;;;5018684;28;20061;-78
2021/10/19 03:30:24;;;;;;;15.32;7.88;;;14.20;99.90;;;;;;5018016;28;20410;-78
2021/10/19 03:32:49;;;;;;;13.98;7.22;;;14.20;99.90;;;;;;5037748;28;20036;-78
2021/10/19 03:35:15;;;;;;;16.95;8.25;;;14.20;99.90;;;;;;5038407;28;20394;-78
2021/10/19 03:37:41;;;;;;;14.85;7.93;;;14.20;99.90;;;;;;5038315;28;20018;-78
2021/10/19 03:40:07;;;;;;;15.57;7.90;;;14.20;99.90;;;;;;5037927;28;20075;-78
2021/10/19 03:42:32;;;;;;;14.70;8.10;;;14.20;99.90;;;;;;5034446;28;20026;-79
2021/10/19 03:44:58;;;;;;;14.45;7.50;;;14.30;99.90;;;;;;5029655;28;20045;-78
2021/10/19 03:47:24;;;;;;;14.10;7.18;;;15.00;99.90;;;;;;5012913;28;20058;-78
2021/10/19 03:49:49;;;;;;;16.48;8.90;;;14.30;99.90;;;;;;5013139;28;20061;-78
2021/10/19 03:52:15;;;;;;;14.05;8.68;;;14.30;99.90;;;;;;5014947;28;20069;-78
2021/10/19 03:54:40;;;;;;;16.77;8.15;;;14.20;99.90;;;;;;5016552;28;20030;-78
2021/10/19 03:57:07;;;;;;;14.98;8.07;;;14.20;99.90;;;;;;5017588;28;20104;-78
2021/10/19 03:59:34;;;;;;;15.02;7.68;;;14.20;99.90;;;;;;5028357;28;20034;-78
2021/10/19 04:01:59;;;;;;;15.60;8.45;;;14.20;99.90;;;;;;5036280;28;20033;-78
2021/10/19 04:04:25;;;;;;;15.35;8.25;;;14.20;99.90;;;;;;5030154;28;20471;-78
2021/10/19 04:06:51;;;;;;;14.80;8.80;;;14.20;99.90;;;;;;5017285;28;20028;-77
2021/10/19 04:09:16;;;;;;;12.95;8.30;;;14.20;99.90;;;;;;5017739;28;20045;-78
2021/10/19 04:11:42;;;;;;;15.13;9.45;;;14.20;99.90;;;;;;5015900;28;20017;-77
2021/10/19 04:14:07;;;;;;;17.17;9.25;;;14.20;99.90;;;;;;5016360;28;20026;-78
2021/10/19 04:16:34;;;;;;;14.60;8.57;;;14.30;99.90;;;;;;5015889;28;20042;-77
2021/10/19 04:19:00;;;;;;;15.32;9.10;;;14.30;99.90;;;;;;5032348;28;20053;-77
2021/10/19 04:21:26;;;;;;;15.55;9.25;;;14.30;99.90;;;;;;5036944;28;20080;-77
2021/10/19 04:23:51;;;;;;;17.40;8.70;;;14.30;99.90;;;;;;5037068;28;20018;-77
2021/10/19 04:26:17;;;;;;;18.05;9.20;;;14.30;99.90;;;;;;5036796;28;20049;-77
2021/10/19 04:28:44;;;;;;;14.10;8.68;;;14.30;99.90;;;;;;5035743;28;20033;-77
2021/10/19 04:31:09;;;;;;;16.33;8.95;;;14.30;99.90;;;;;;5035296;28;20127;-78
2021/10/19 04:33:35;;;;;;;13.65;8.82;;;14.30;99.90;;;;;;5033603;28;20057;-77
2021/10/19 04:36:04;;;;;;;16.10;9.05;;;14.30;99.90;;;;;;5023622;28;20030;-77
2021/10/19 04:38:34;;;;;;;13.82;7.75;;;14.20;99.90;;;;;;5016591;28;20022;-77
2021/10/19 04:41:00;;;;;;;13.60;8.00;;;14.30;99.90;;;;;;5016439;28;20022;-77
2021/10/19 04:43:25;;;;;;;13.35;7.03;;;14.30;99.90;;;;;;5015047;28;20391;-77
2021/10/19 04:45:53;;;;;;;13.68;7.40;;;14.30;99.90;;;;;;5016824;28;20026;-77
2021/10/19 04:48:21;;;;;;;10.90;6.70;;;14.30;99.90;;;;;;5014946;28;20017;-77
2021/10/19 04:50:47;;;;;;;12.57;7.15;;;14.30;99.90;;;;;;5017188;28;20034;-77
2021/10/19 04:53:13;;;;;;;12.27;6.68;;;14.30;99.90;;;;;;5016096;28;20505;-77
2021/10/19 04:55:38;;;;;;;13.43;6.90;;;14.40;99.90;;;;;;5014778;28;20026;-77
2021/10/19 04:58:04;;;;;;;10.55;5.93;;;14.40;99.90;;;;;;5014907;28;20042;-77
2021/10/19 05:00:30;;;;;;;10.13;6.30;;;14.40;99.90;;;;;;5015997;28;20072;-77
2021/10/19 05:02:57;;;;;;;10.57;6.45;;;14.30;99.90;;;;;;5014645;28;20046;-77
2021/10/19 05:05:23;;;;;;;11.30;6.10;;;14.40;99.90;;;;;;5029561;28;20025;-79
2021/10/19 05:07:48;;;;;;;10.73;5.97;;;14.40;99.90;;;;;;5030390;28;20137;-79
2021/10/19 05:10:14;;;;;;;10.70;6.30;;;14.40;99.90;;;;;;5021401;28;20548;-81
2021/10/19 05:12:40;;;;;;;10.02;6.28;;;14.40;99.90;;;;;;5017157;28;20025;-81
2021/10/19 05:15:07;;;;;;;11.45;6.20;;;14.50;99.90;;;;;;5018384;28;20096;-81
2021/10/19 05:17:32;;;;;;;9.82;5.88;;;14.40;99.90;;;;;;5017270;28;20029;-81
2021/10/19 05:19:58;;;;;;;9.68;6.10;;;14.50;99.90;;;;;;5016628;28;20018;-81
2021/10/19 05:22:24;;;;;;;8.63;5.57;;;14.50;99.90;;;;;;5017076;28;20022;-81
2021/10/19 05:24:50;;;;;;;9.43;5.63;;;14.50;99.90;;;;;;5018555;28;20030;-81
2021/10/19 05:27:16;;;;;;;13.75;6.35;;;14.50;99.90;;;;;;5017013;28;20434;-81
2021/10/19 05:29:41;;;;;;;10.65;6.63;;;14.50;99.90;;;;;;5017704;28;20038;-81
2021/10/19 05:32:07;;;;;;;8.95;6.05;;;14.50;99.90;;;;;;5015928;28;20109;-78
2021/10/19 05:34:33;;;;;;;13.20;6.47;;;14.50;99.90;;;;;;5015457;28;20050;-78
2021/10/19 05:36:58;;;;;;;8.57;5.63;;;14.50;99.90;;;;;;5015312;28;20022;-78
2021/10/19 05:39:24;;;;;;;9.77;5.95;;;14.50;99.90;;;;;;5014154;28;20479;-78
2021/10/19 05:41:49;;;;;;;9.18;5.78;;;14.50;99.90;;;;;;5015737;28;20068;-78
2021/10/19 05:44:15;;;;;;;10.32;6.75;;;14.50;99.90;;;;;;5014038;28;20025;-78
2021/10/19 05:46:41;;;;;;;9.88;6.65;;;14.50;99.90;;;;;;5014378;28;20030;-78
2021/10/19 05:49:07;;;;;;;10.68;6.63;;;14.50;99.90;;;;;;5015952;28;20041;-78
2021/10/19 05:51:33;;;;;;;9.98;6.22;;;14.50;99.90;;;;;;5014988;28;20561;-78
2021/10/19 05:53:59;;;;;;;10.18;6.85;;;14.50;99.90;;;;;;5016355;28;20026;-78
2021/10/19 05:56:25;;;;;;;10.32;6.53;;;14.60;99.90;;;;;;5014858;28;20105;-78
2021/10/19 05:58:51;;;;;;;11.82;7.18;;;14.60;99.90;;;;;;5016384;28;20022;-78
2021/10/19 06:01:16;;;;;;;12.40;6.68;;;14.60;99.90;;;;;;5016481;28;20040;-78
2021/10/19 06:03:42;;;;;;;11.63;6.70;;;14.60;99.90;;;;;;5016186;28;20065;-78
2021/10/19 06:06:09;;;;;;;10.57;6.90;;;14.60;99.90;;;;;;5035655;28;20025;-79
2021/10/19 06:08:34;;;;;;;11.23;6.78;;;14.60;99.90;;;;;;5033919;28;20152;-78
2021/10/19 06:11:00;;;;;;;12.07;7.07;;;14.60;99.90;;;;;;5035714;28;20025;-78
2021/10/19 06:13:26;;;;;;;12.98;7.18;;;14.60;99.90;;;;;;5035696;28;20045;-78
2021/10/19 06:15:54;;;;;;;13.13;7.80;;;14.60;99.90;;;;;;5034582;28;20029;-78
2021/10/19 06:18:19;;;;;;;11.75;7.50;;;14.60;99.90;;;;;;5035211;28;20172;-78
2021/10/19 06:20:47;;;;;;;14.27;8.07;;;14.60;99.90;;;;;;5035916;28;20032;-78
2021/10/19 06:23:13;;;;;;;12.77;7.82;;;14.60;99.90;;;;;;5034978;28;20020;-78
2021/10/19 06:25:39;;;;;;;18.38;9.20;;;14.60;99.90;;;;;;5033428;28;20122;-78
2021/10/19 06:28:04;;;;;;;12.70;7.25;;;14.70;99.90;;;;;;5033609;28;20104;-78
2021/10/19 06:30:30;;;;;;;15.02;8.15;;;14.60;99.90;;;;;;5034711;28;20052;-78
2021/10/19 06:32:55;;;;;;;19.95;9.27;;;14.70;99.90;;;;;;5034748;28;20032;-78
2021/10/19 06:35:21;;;;;;;13.60;8.43;;;14.70;99.90;;;;;;5033911;28;20026;-78
2021/10/19 06:37:46;;;;;;;14.10;8.45;;;14.70;99.90;;;;;;5024199;28;20065;-77
2021/10/19 06:40:12;;;;;;;18.40;8.98;;;14.70;99.90;;;;;;5027828;28;20505;-78
2021/10/19 06:42:38;;;;;;;14.80;8.50;;;14.70;99.90;;;;;;5023541;28;20026;-77
2021/10/19 06:45:04;;;;;;;24.02;8.27;;;14.70;99.90;;;;;;5014107;28;20535;-76
2021/10/19 06:47:30;;;;;;;16.10;8.63;;;14.70;99.90;;;;;;5015607;28;20045;-81
2021/10/19 06:49:57;;;;;;;15.27;8.82;;;14.70;99.90;;;;;;5015765;28;20026;-81
2021/10/19 06:52:23;;;;;;;14.05;7.65;;;14.70;99.90;;;;;;5020029;28;20076;-77
2021/10/19 06:54:48;;;;;;;15.55;8.00;;;14.70;99.90;;;;;;5036737;28;20029;-78
2021/10/19 06:57:14;;;;;;;15.52;8.57;;;14.70;99.90;;;;;;5034668;28;20021;-78
2021/10/19 06:59:39;;;;;;;13.02;7.82;;;16.20;99.90;;;;;;5016187;28;20096;-81
2021/10/19 07:02:05;;;;;;;11.95;7.32;;;14.80;99.90;;;;;;5015378;28;20101;-81
2021/10/19 07:04:30;;;;;;;13.68;8.07;;;14.80;99.90;;;;;;5015052;28;20026;-81
2021/10/19 07:06:56;;;;;;;16.65;9.23;;;14.80;99.90;;;;;;5020982;28;20032;-77
2021/10/19 07:09:22;;;;;;;15.88;8.75;;;14.80;99.90;;;;;;5032474;28;20134;-77
2021/10/19 07:11:47;;;;;;;16.15;7.90;;;14.80;99.90;;;;;;5033861;28;20486;-77
2021/10/19 07:14:14;;;;;;;15.85;9.05;;;14.90;99.90;;;;;;5032361;28;20228;-77
2021/10/19 07:16:39;;;;;;;14.15;8.45;;;14.90;99.90;;;;;;5032252;28;20029;-77
2021/10/19 07:19:09;;;;;;;15.40;8.43;;;15.00;99.90;;;;;;5027813;28;20087;-77
2021/10/19 07:21:38;;;;;;;16.52;9.07;;;15.00;99.90;;;;;;5012531;28;20471;-77
2021/10/19 07:24:05;;;;;;;15.60;7.93;;;15.00;99.90;;;;;;5014133;28;20018;-77
2021/10/19 07:26:31;;;;;;;15.13;8.07;;;15.00;99.90;;;;;;5012471;28;20022;-77
2021/10/19 07:28:56;;;;;;;15.02;8.05;;;15.00;99.90;;;;;;5012412;28;20084;-78
2021/10/19 07:31:22;;;;;;;17.77;8.77;;;15.00;99.90;;;;;;5013757;28;20475;-78
2021/10/19 07:33:47;;;;;;;15.77;8.82;;;15.10;99.90;;;;;;5027208;28;20033;-78
2021/10/19 07:36:13;;;;;;;16.77;9.23;;;15.10;99.90;;;;;;5033495;28;20383;-78
2021/10/19 07:38:38;;;;;;;17.23;9.10;;;15.10;99.90;;;;;;5032086;28;20021;-78
2021/10/19 07:41:04;;;;;;;16.60;8.60;;;15.10;99.90;;;;;;5031849;28;20018;-77
2021/10/19 07:43:29;;;;;;;15.23;8.63;;;15.10;99.90;;;;;;5022145;28;20014;-77
2021/10/19 07:45:55;;;;;;;18.27;9.13;;;15.10;99.90;;;;;;5012291;28;20033;-78
2021/10/19 07:48:21;;;;;;;15.35;8.43;;;15.20;99.90;;;;;;5012152;28;20033;-78
2021/10/19 07:50:49;;;;;;;14.88;8.10;;;15.20;99.90;;;;;;5013392;28;20029;-77
2021/10/19 07:53:16;;;;;;;15.82;7.60;;;15.20;99.90;;;;;;5012101;28;20033;-77
2021/10/19 07:55:42;;;;;;;14.70;7.93;;;15.30;99.90;;;;;;5012190;28;20399;-78
2021/10/19 07:58:08;;;;;;;13.20;7.32;;;15.30;99.90;;;;;;5031130;28;20556;-78
2021/10/19 08:00:34;;;;;;;14.00;7.47;;;15.40;99.90;;;;;;5032131;28;20061;-78
2021/10/19 08:02:59;;;;;;;13.23;7.60;;;15.40;99.90;;;;;;5033153;28;20028;-77
2021/10/19 08:05:26;;;;;;;11.73;6.80;;;15.40;99.90;;;;;;5016169;28;20347;-77
2021/10/19 08:08:03;;;;;;;15.30;7.55;;;15.60;99.90;;;;;;5013298;28;20438;-77
2021/10/19 08:10:29;;;;;;;13.23;7.65;;;15.40;99.90;;;;;;5013503;28;20022;-77
2021/10/19 08:12:54;;;;;;;12.05;7.10;;;15.50;99.90;;;;;;5012046;28;20117;-76
2021/10/19 08:15:20;;;;;;;13.23;7.65;;;15.50;99.90;;;;;;5011788;28;20390;-77
2021/10/19 08:17:46;;;;;;;12.82;7.47;;;15.50;99.90;;;;;;5012778;28;20048;-77
2021/10/19 08:20:13;;;;;;;12.00;7.20;;;15.50;99.90;;;;;;5013027;28;20046;-77
2021/10/19 08:22:39;;;;;;;11.30;7.05;;;15.50;99.90;;;;;;5011812;28;20045;-76
2021/10/19 08:25:07;;;;;;;12.88;7.35;;;15.90;99.90;;;;;;5013385;28;20026;-77
2021/10/19 08:27:34;;;;;;;12.43;7.40;;;15.50;99.90;;;;;;5029471;28;20021;-78
2021/10/19 08:29:59;;;;;;;13.23;6.93;;;15.60;99.90;;;;;;5034086;28;20032;-78
2021/10/19 08:32:25;;;;;;;11.68;6.80;;;15.60;99.90;;;;;;5035066;28;20030;-78
2021/10/19 08:34:50;;;;;;;13.13;7.07;;;15.60;99.90;;;;;;5027775;28;20026;-78
2021/10/19 08:37:16;;;;;;;12.95;7.65;;;15.60;99.90;;;;;;5013051;28;20035;-78
2021/10/19 08:39:42;;;;;;;13.07;7.18;;;15.60;99.90;;;;;;5013876;28;20018;-78
2021/10/19 08:42:08;;;;;;;10.18;6.00;;;15.70;99.90;;;;;;5017553;28;20053;-78
2021/10/19 08:44:33;;;;;;;10.32;5.90;;;15.70;99.90;;;;;;5018181;28;20014;-78
2021/10/19 08:47:01;;;;;;;9.68;6.00;;;15.70;99.90;;;;;;5016712;28;20093;-78
2021/10/19 08:49:26;;;;;;;11.15;6.03;;;15.80;99.90;;;;;;5017027;28;20030;-78
2021/10/19 08:51:52;;;;;;;9.55;5.63;;;15.80;99.90;;;;;;5017761;28;20036;-78
2021/10/19 08:54:17;;;;;;;9.18;5.75;;;15.80;99.90;;;;;;5016341;28;20095;-78
2021/10/19 08:56:43;;;;;;;10.38;6.00;;;15.90;99.90;;;;;;5016580;28;20042;-78
2021/10/19 08:59:11;;;;;;;10.63;6.15;;;15.90;99.90;;;;;;5016207;28;20022;-78
2021/10/19 09:01:39;;;;;;;8.88;5.38;;;15.90;99.90;;;;;;5016884;28;20018;-78
2021/10/19 09:04:07;;;;;;;9.65;5.53;;;15.90;99.90;;;;;;5015863;28;20018;-80
2021/10/19 09:06:34;;;;;;;9.55;4.82;;;16.00;99.90;;;;;;5015621;28;20478;-78
2021/10/19 09:09:13;;;;;;;8.50;4.53;;;15.90;99.90;;;;;;5017147;28;20057;-78
2021/10/19 09:11:48;;;;;;;7.72;4.57;;;16.00;99.90;;;;;;5015644;28;20101;-78
2021/10/19 09:14:16;;;;;;;7.68;4.35;;;16.00;99.90;;;;;;5016626;28;20030;-79
2021/10/19 09:16:48;;;;;;;6.27;4.03;;;16.00;99.90;;;;;;5015593;28;20026;-78
2021/10/19 09:19:16;;;;;;;7.93;4.03;;;16.00;99.90;;;;;;5019173;28;20506;-79
2021/10/19 09:21:51;;;;;;;6.25;3.83;;;16.00;99.90;;;;;;5017166;28;20029;-79
2021/10/19 09:24:26;;;;;;;6.32;3.75;;;16.10;99.90;;;;;;5015464;28;20377;-79
2021/10/19 09:27:00;;;;;;;6.00;3.63;;;16.20;99.90;;;;;;5015701;28;20026;-78
2021/10/19 09:29:34;;;;;;;6.85;4.10;;;16.20;99.90;;;;;;5015589;28;20053;-78
2021/10/19 09:32:03;;;;;;;8.63;3.97;;;16.20;99.90;;;;;;5015825;28;20026;-79
2021/10/19 09:34:32;;;;;;;7.53;4.38;;;16.20;99.90;;;;;;5024594;28;20475;-79
2021/10/19 09:36:59;;;;;;;7.35;3.70;;;16.20;99.90;;;;;;5034604;28;20022;-78
2021/10/19 09:39:40;;;;;;;6.85;3.70;;;16.20;99.90;;;;;;5036244;28;20029;-78
2021/10/19 09:42:17;;;;;;;7.18;4.18;;;16.30;99.90;;;;;;5036258;28;20018;-79
2021/10/19 09:44:52;;;;;;;9.73;4.18;;;16.30;99.90;;;;;;5035003;28;20124;-78
2021/10/19 09:47:18;;;;;;;7.38;4.35;;;16.30;99.90;;;;;;5035545;28;20393;-78
2021/10/19 09:49:46;;;;;;;7.72;4.47;;;16.30;99.90;;;;;;5033927;28;20025;-79
2021/10/19 09:52:12;;;;;;;8.07;4.88;;;16.30;99.90;;;;;;5024004;28;20057;-79
2021/10/19 09:54:39;;;;;;;10.75;4.65;;;16.30;99.90;;;;;;5014957;28;20030;-79
2021/10/19 09:57:06;;;;;;;7.88;4.53;;;16.30;99.90;;;;;;5016171;28;20084;-78
2021/10/19 09:59:32;;;;;;;9.68;5.68;;;16.40;99.90;;;;;;5014518;28;20483;-78
2021/10/19 10:01:58;;;;;;;8.80;5.03;;;16.40;99.90;;;;;;5014876;28;20014;-79
2021/10/19 10:04:24;;;;;;;9.15;5.22;;;16.40;99.90;;;;;;5017584;28;20032;-79
2021/10/19 10:06:50;;;;;;;13.27;5.72;;;16.40;99.90;;;;;;5015827;28;20022;-78
2021/10/19 10:09:16;;;;;;;9.88;5.65;;;16.50;99.90;;;;;;5014298;28;20070;-78
2021/10/19 10:11:42;;;;;;;11.52;6.10;;;16.50;99.90;;;;;;5016091;28;20021;-79
2021/10/19 10:14:09;;;;;;;10.38;5.55;;;16.60;99.90;;;;;;5014679;28;20390;-79
2021/10/19 10:16:43;;;;;;;9.45;6.25;;;16.60;99.90;;;;;;5016062;28;20467;-78
2021/10/19 10:19:17;;;;;;;10.50;6.03;;;16.70;99.90;;;;;;5030643;28;20453;-78
2021/10/19 10:21:49;;;;;;;14.45;7.55;;;16.70;99.90;;;;;;5034842;28;20503;-78
2021/10/19 10:24:27;;;;;;;11.88;6.07;;;16.70;99.90;;;;;;5035374;28;20025;-79
2021/10/19 10:27:03;;;;;;;13.15;7.47;;;16.80;99.90;;;;;;5033636;28;20029;-79
2021/10/19 10:29:37;;;;;;;11.98;6.78;;;16.80;99.90;;;;;;5033885;28;20409;-78
2021/10/19 10:32:03;;;;;;;14.32;8.10;;;16.90;99.90;;;;;;5033582;28;20447;-79
2021/10/19 10:34:30;;;;;;;16.77;7.60;;;16.90;99.90;;;;;;5023814;28;20026;-79
2021/10/19 10:37:07;;;;;;;12.75;6.50;;;16.90;99.90;;;;;;5016024;28;20030;-78
2021/10/19 10:39:36;;;;;;;14.35;7.38;;;17.00;99.90;;;;;;5025786;28;20017;-79
2021/10/19 10:42:08;;;;;;;;;;;17.00;99.90;;;;;;5017100;28;20487;-78
2021/10/19 10:44:40;;;;;;;13.55;6.25;;;17.10;99.90;;;;;;5013978;28;19955;-78
2021/10/19 10:47:07;;;;;;;12.25;7.03;;;17.10;99.90;;;;;;5013867;28;20113;-78
2021/10/19 10:49:33;;;;;;;11.98;6.63;;;17.20;99.90;;;;;;5015311;28;20038;-79
2021/10/19 10:52:01;;;;;;;13.52;7.55;;;17.20;99.90;;;;;;5020526;28;20025;-79
2021/10/19 10:54:27;;;;;;;14.77;7.20;;;17.20;99.90;;;;;;5033497;28;20035;-79
2021/10/19 10:56:54;;;;;;;16.13;7.47;;;17.20;99.90;;;;;;5033029;28;20292;-78
2021/10/19 10:59:24;;;;;;;13.57;7.70;;;17.20;99.90;;;;;;5032924;28;20025;-79
2021/10/19 11:01:49;;;;;;;14.93;7.90;;;17.30;99.90;;;;;;5033774;28;20486;-78
2021/10/19 11:04:15;;;;;;;15.85;8.00;;;17.20;99.90;;;;;;5034198;28;20017;-78
2021/10/19 11:06:41;;;;;;;15.15;7.63;;;17.20;99.90;;;;;;5034208;28;20025;-78
2021/10/19 11:09:12;;;;;;;15.93;7.72;;;17.30;99.90;;;;;;5016323;28;20041;-78
2021/10/19 11:11:39;;;;;;;14.77;8.00;;;17.30;99.90;;;;;;5013221;28;20026;-78
2021/10/19 11:14:13;;;;;;;17.05;8.05;;;17.30;99.90;;;;;;5013789;28;20117;-78
2021/10/19 11:16:44;;;;;;;12.52;6.60;;;17.30;99.90;;;;;;5013507;28;20026;-77
2021/10/19 11:19:23;;;;;;;16.33;8.05;;;17.40;99.90;;;;;;5012716;28;20022;-77
2021/10/19 11:22:09;;;;;;;;;;;17.40;99.90;;;;;;5012903;28;20022;-77
2021/10/19 11:24:36;;;;;;;16.90;7.30;;;17.40;99.90;;;;;;5013365;28;19959;-77
2021/10/19 11:27:04;;;;;;;17.63;7.28;;;17.50;99.90;;;;;;5013467;28;20033;-77
2021/10/19 11:29:37;;;;;;;13.75;6.57;;;17.50;99.90;;;;;;5013526;28;20108;-77
2021/10/19 11:32:03;;;;;;;13.70;5.88;;;17.60;99.90;;;;;;5012253;28;20410;-76
2021/10/19 11:34:29;;;;;;;14.27;6.47;;;17.60;99.90;;;;;;5013329;28;20033;-77
2021/10/19 11:36:55;;;;;;;14.98;6.95;;;17.60;99.90;;;;;;5013775;28;20030;-77
2021/10/19 11:39:21;;;;;;;14.00;6.20;;;17.60;99.90;;;;;;5029583;28;20112;-77
2021/10/19 11:41:57;;;;;;;10.88;6.20;;;17.70;99.90;;;;;;5031806;28;20022;-77
2021/10/19 11:44:29;;;;;;;13.15;6.25;;;17.70;99.90;;;;;;5033021;28;20133;-77
2021/10/19 11:46:57;;;;;;;12.93;6.28;;;17.70;99.90;;;;;;5037976;28;20427;-80
2021/10/19 11:49:23;;;;;;;9.18;4.32;;;17.70;99.90;;;;;;5040858;28;20037;-80
2021/10/19 11:51:51;;;;;;;10.38;5.32;;;17.70;99.90;;;;;;5031741;28;20029;-80
2021/10/19 11:54:17;;;;;;;8.90;4.72;;;17.70;99.90;;;;;;5021299;28;20022;-79
2021/10/19 11:57:13;;;;;;;10.40;4.72;;;17.80;99.90;;;;;;5020578;28;20030;-79
2021/10/19 11:59:45;;;;;;;12.07;4.88;;;17.70;99.90;;;;;;5017136;28;20061;-79
2021/10/19 12:02:10;;;;;;;9.50;4.45;;;17.70;99.90;;;;;;5020725;28;20049;-79
2021/10/19 12:04:45;;;;;;;9.02;3.80;;;17.80;99.90;;;;;;5029840;28;20037;-80
2021/10/19 12:07:13;;;;;;;14.98;5.10;;;17.70;99.90;;;;;;5040299;28;20025;-80
2021/10/19 12:09:41;;;;;;;12.18;5.97;;;17.70;99.90;;;;;;5040816;28;20021;-80
2021/10/19 12:12:07;;;;;;;12.27;4.97;;;17.90;99.90;;;;;;5041406;28;20052;-79
2021/10/19 12:14:40;;;;;;;12.50;5.80;;;17.80;99.90;;;;;;5041912;28;20022;-79
2021/10/19 12:17:07;;;;;;;13.07;6.63;;;17.80;99.90;;;;;;5044245;28;20076;-80
2021/10/19 12:19:36;;;;;;;13.35;5.93;;;17.90;99.90;;;;;;5044246;28;20025;-79
2021/10/19 12:22:08;;;;;;;12.93;5.82;;;17.80;99.90;;;;;;5044066;28;20032;-80
2021/10/19 12:24:38;;;;;;;13.88;6.10;;;17.80;99.90;;;;;;5044763;28;20024;-80
2021/10/19 12:27:13;;;;;;;15.25;5.88;;;17.80;99.90;;;;;;5043647;28;20080;-79
2021/10/19 12:29:39;;;;;;;15.07;6.10;;;17.70;99.90;;;;;;5045500;28;20390;-79
2021/10/19 12:32:06;;;;;;;15.05;6.45;;;17.70;99.90;;;;;;5044806;28;20032;-80
2021/10/19 12:34:33;;;;;;;15.88;5.47;;;17.70;99.90;;;;;;5028954;28;20029;-80
2021/10/19 12:37:02;;;;;;;13.68;6.57;;;17.70;99.90;;;;;;5025173;28;20033;-79